sensor_id;sensor_type;location;lat;lon;timestamp;temperature;humidity
65536;DHT22;52145;49.342;9.116;2022-07-09T00:01:48;15.80;94.30
65536;DHT22;52145;49.342;9.116;2022-07-09T00:04:13;15.70;94.40
65536;DHT22;52145;49.342;9.116;2022-07-09T00:06:39;15.70;94.60
65536;DHT22;52145;49.342;9.116;2022-07-09T00:09:04;15.70;94.60
65536;DHT22;52145;49.342;9.116;2022-07-09T00:11:30;15.60;94.60
65536;DHT22;52145;49.342;9.116;2022-07-09T00:13:56;15.60;94.70
65536;DHT22;52145;49.342;9.116;2022-07-09T00:16:21;15.60;94.80
65536;DHT22;52145;49.342;9.116;2022-07-09T00:18:47;15.70;94.80
65536;DHT22;52145;49.342;9.116;2022-07-09T00:21:12;15.60;94.90
65536;DHT22;52145;49.342;9.116;2022-07-09T00:23:38;15.50;95.00
65536;DHT22;52145;49.342;9.116;2022-07-09T00:26:04;15.50;95.00
65536;DHT22;52145;49.342;9.116;2022-07-09T00:28:29;15.60;95.10
65536;DHT22;52145;49.342;9.116;2022-07-09T00:30:55;15.60;95.00
65536;DHT22;52145;49.342;9.116;2022-07-09T00:33:20;15.50;95.30
65536;DHT22;52145;49.342;9.116;2022-07-09T00:35:46;15.30;95.50
65536;DHT22;52145;49.342;9.116;2022-07-09T00:38:12;15.30;95.60
65536;DHT22;52145;49.342;9.116;2022-07-09T00:40:38;15.30;95.60
65536;DHT22;52145;49.342;9.116;2022-07-09T00:43:03;15.20;95.70
65536;DHT22;52145;49.342;9.116;2022-07-09T00:45:29;15.30;95.80
65536;DHT22;52145;49.342;9.116;2022-07-09T00:47:54;15.20;95.90
65536;DHT22;52145;49.342;9.116;2022-07-09T00:50:20;15.20;96.10
65536;DHT22;52145;49.342;9.116;2022-07-09T00:52:47;15.20;96.20
65536;DHT22;52145;49.342;9.116;2022-07-09T00:55:13;15.30;96.20
65536;DHT22;52145;49.342;9.116;2022-07-09T00:57:40;15.20;96.20
65536;DHT22;52145;49.342;9.116;2022-07-09T01:00:07;15.10;96.30
65536;DHT22;52145;49.342;9.116;2022-07-09T01:02:33;15.10;96.60
65536;DHT22;52145;49.342;9.116;2022-07-09T01:04:59;15.00;96.90
65536;DHT22;52145;49.342;9.116;2022-07-09T01:07:24;14.90;97.10
65536;DHT22;52145;49.342;9.116;2022-07-09T01:09:50;14.90;97.20
65536;DHT22;52145;49.342;9.116;2022-07-09T01:12:16;14.90;97.30
65536;DHT22;52145;49.342;9.116;2022-07-09T01:14:41;14.90;97.20
65536;DHT22;52145;49.342;9.116;2022-07-09T01:17:07;14.90;97.10
65536;DHT22;52145;49.342;9.116;2022-07-09T01:19:34;14.90;97.40
65536;DHT22;52145;49.342;9.116;2022-07-09T01:22:00;14.80;97.60
65536;DHT22;52145;49.342;9.116;2022-07-09T01:24:26;14.70;97.80
65536;DHT22;52145;49.342;9.116;2022-07-09T01:26:52;14.70;97.80
65536;DHT22;52145;49.342;9.116;2022-07-09T01:29:19;14.70;97.90
65536;DHT22;52145;49.342;9.116;2022-07-09T01:31:45;14.70;98.10
65536;DHT22;52145;49.342;9.116;2022-07-09T01:34:10;14.60;98.10
65536;DHT22;52145;49.342;9.116;2022-07-09T01:36:36;14.60;98.20
65536;DHT22;52145;49.342;9.116;2022-07-09T01:39:02;14.60;98.40
65536;DHT22;52145;49.342;9.116;2022-07-09T01:41:28;14.70;98.20
65536;DHT22;52145;49.342;9.116;2022-07-09T01:43:53;14.60;98.20
65536;DHT22;52145;49.342;9.116;2022-07-09T01:46:25;14.60;98.30
65536;DHT22;52145;49.342;9.116;2022-07-09T01:48:50;14.70;98.50
65536;DHT22;52145;49.342;9.116;2022-07-09T01:51:16;14.60;98.40
65536;DHT22;52145;49.342;9.116;2022-07-09T01:53:42;14.60;98.40
65536;DHT22;52145;49.342;9.116;2022-07-09T01:56:08;14.60;98.40
65536;DHT22;52145;49.342;9.116;2022-07-09T01:58:34;14.50;98.60
65536;DHT22;52145;49.342;9.116;2022-07-09T02:01:00;14.40;98.80
65536;DHT22;52145;49.342;9.116;2022-07-09T02:03:26;14.30;99.10
65536;DHT22;52145;49.342;9.116;2022-07-09T02:05:51;14.40;99.10
65536;DHT22;52145;49.342;9.116;2022-07-09T02:08:17;14.40;99.00
65536;DHT22;52145;49.342;9.116;2022-07-09T02:10:42;14.30;99.30
65536;DHT22;52145;49.342;9.116;2022-07-09T02:13:08;14.30;99.40
65536;DHT22;52145;49.342;9.116;2022-07-09T02:15:34;14.20;99.60
65536;DHT22;52145;49.342;9.116;2022-07-09T02:18:00;14.10;99.80
65536;DHT22;52145;49.342;9.116;2022-07-09T02:20:25;14.10;99.90
65536;DHT22;52145;49.342;9.116;2022-07-09T02:22:51;14.00;99.90
65536;DHT22;52145;49.342;9.116;2022-07-09T02:25:17;13.90;99.90
65536;DHT22;52145;49.342;9.116;2022-07-09T02:27:43;13.90;99.90
65536;DHT22;52145;49.342;9.116;2022-07-09T02:30:09;13.90;99.90
65536;DHT22;52145;49.342;9.116;2022-07-09T02:32:34;14.00;99.90
65536;DHT22;52145;49.342;9.116;2022-07-09T02:35:02;13.90;99.90
65536;DHT22;52145;49.342;9.116;2022-07-09T02:37:27;13.90;99.90
65536;DHT22;52145;49.342;9.116;2022-07-09T02:39:53;13.90;99.90
65536;DHT22;52145;49.342;9.116;2022-07-09T02:42:18;13.80;99.90
65536;DHT22;52145;49.342;9.116;2022-07-09T02:44:44;13.80;99.90
65536;DHT22;52145;49.342;9.116;2022-07-09T02:47:09;13.80;99.90
65536;DHT22;52145;49.342;9.116;2022-07-09T02:49:35;13.70;99.90
65536;DHT22;52145;49.342;9.116;2022-07-09T02:52:00;13.70;99.90
65536;DHT22;52145;49.342;9.116;2022-07-09T02:54:27;13.70;99.90
65536;DHT22;52145;49.342;9.116;2022-07-09T02:56:53;13.70;99.90
65536;DHT22;52145;49.342;9.116;2022-07-09T02:59:19;13.70;99.90
65536;DHT22;52145;49.342;9.116;2022-07-09T03:01:44;13.70;99.90
65536;DHT22;52145;49.342;9.116;2022-07-09T03:04:10;13.60;99.90
65536;DHT22;52145;49.342;9.116;2022-07-09T03:06:36;13.60;99.90
65536;DHT22;52145;49.342;9.116;2022-07-09T03:09:02;13.60;99.90
65536;DHT22;52145;49.342;9.116;2022-07-09T03:11:28;13.50;99.90
65536;DHT22;52145;49.342;9.116;2022-07-09T03:13:53;13.50;99.90
65536;DHT22;52145;49.342;9.116;2022-07-09T03:16:19;13.40;99.90
65536;DHT22;52145;49.342;9.116;2022-07-09T03:18:45;13.40;99.90
65536;DHT22;52145;49.342;9.116;2022-07-09T03:21:10;13.40;99.90
65536;DHT22;52145;49.342;9.116;2022-07-09T03:23:36;13.40;99.90
65536;DHT22;52145;49.342;9.116;2022-07-09T03:26:04;13.50;99.90
65536;DHT22;52145;49.342;9.116;2022-07-09T03:28:30;13.60;99.90
65536;DHT22;52145;49.342;9.116;2022-07-09T03:30:56;13.50;99.90
65536;DHT22;52145;49.342;9.116;2022-07-09T03:33:22;13.50;99.90
65536;DHT22;52145;49.342;9.116;2022-07-09T03:35:48;13.50;99.90
65536;DHT22;52145;49.342;9.116;2022-07-09T03:38:14;13.50;99.90
65536;DHT22;52145;49.342;9.116;2022-07-09T03:40:39;13.50;99.90
65536;DHT22;52145;49.342;9.116;2022-07-09T03:43:05;13.40;99.90
65536;DHT22;52145;49.342;9.116;2022-07-09T03:45:31;13.50;99.90
65536;DHT22;52145;49.342;9.116;2022-07-09T03:47:57;13.50;99.90
65536;DHT22;52145;49.342;9.116;2022-07-09T03:50:23;13.50;99.90
65536;DHT22;52145;49.342;9.116;2022-07-09T03:52:49;13.40;99.90
65536;DHT22;52145;49.342;9.116;2022-07-09T03:55:15;13.50;99.90
65536;DHT22;52145;49.342;9.116;2022-07-09T03:57:41;13.40;99.90
65536;DHT22;52145;49.342;9.116;2022-07-09T04:00:08;13.40;99.90
65536;DHT22;52145;49.342;9.116;2022-07-09T04:02:34;13.40;99.90
65536;DHT22;52145;49.342;9.116;2022-07-09T04:04:59;13.50;99.90
65536;DHT22;52145;49.342;9.116;2022-07-09T04:07:25;13.40;99.90
65536;DHT22;52145;49.342;9.116;2022-07-09T04:09:56;13.40;99.90
65536;DHT22;52145;49.342;9.116;2022-07-09T04:12:24;13.30;99.90
65536;DHT22;52145;49.342;9.116;2022-07-09T04:14:50;13.40;99.90
65536;DHT22;52145;49.342;9.116;2022-07-09T04:17:16;13.40;99.90
65536;DHT22;52145;49.342;9.116;2022-07-09T04:19:42;13.40;99.90
65536;DHT22;52145;49.342;9.116;2022-07-09T04:22:09;13.40;99.90
65536;DHT22;52145;49.342;9.116;2022-07-09T04:24:35;13.50;99.90
65536;DHT22;52145;49.342;9.116;2022-07-09T04:27:01;13.50;99.90
65536;DHT22;52145;49.342;9.116;2022-07-09T04:29:29;13.50;99.90
65536;DHT22;52145;49.342;9.116;2022-07-09T04:31:59;13.70;99.90
65536;DHT22;52145;49.342;9.116;2022-07-09T04:34:27;13.60;99.90
65536;DHT22;52145;49.342;9.116;2022-07-09T04:36:55;13.60;99.90
65536;DHT22;52145;49.342;9.116;2022-07-09T04:39:22;13.60;99.90
65536;DHT22;52145;49.342;9.116;2022-07-09T04:41:50;13.60;99.90
65536;DHT22;52145;49.342;9.116;2022-07-09T04:44:16;13.60;99.90
65536;DHT22;52145;49.342;9.116;2022-07-09T04:46:44;13.70;99.90
65536;DHT22;52145;49.342;9.116;2022-07-09T04:49:10;13.80;99.90
65536;DHT22;52145;49.342;9.116;2022-07-09T04:51:36;13.80;99.90
65536;DHT22;52145;49.342;9.116;2022-07-09T04:54:02;13.90;99.90
65536;DHT22;52145;49.342;9.116;2022-07-09T04:56:29;13.90;99.90
65536;DHT22;52145;49.342;9.116;2022-07-09T04:58:57;14.00;99.90
65536;DHT22;52145;49.342;9.116;2022-07-09T05:01:27;14.00;99.90
65536;DHT22;52145;49.342;9.116;2022-07-09T05:03:55;14.10;99.90
65536;DHT22;52145;49.342;9.116;2022-07-09T05:06:24;14.40;99.90
65536;DHT22;52145;49.342;9.116;2022-07-09T05:08:55;14.50;99.90
65536;DHT22;52145;49.342;9.116;2022-07-09T05:11:21;14.50;99.90
65536;DHT22;52145;49.342;9.116;2022-07-09T05:13:55;14.70;99.90
65536;DHT22;52145;49.342;9.116;2022-07-09T05:16:22;14.80;99.90
65536;DHT22;52145;49.342;9.116;2022-07-09T05:18:49;14.90;99.90
65536;DHT22;52145;49.342;9.116;2022-07-09T05:21:19;14.80;99.90
65536;DHT22;52145;49.342;9.116;2022-07-09T05:23:45;14.80;99.90
65536;DHT22;52145;49.342;9.116;2022-07-09T05:26:14;15.00;99.90
65536;DHT22;52145;49.342;9.116;2022-07-09T05:28:42;15.20;99.90
65536;DHT22;52145;49.342;9.116;2022-07-09T05:31:08;15.40;99.90
65536;DHT22;52145;49.342;9.116;2022-07-09T05:33:37;15.50;99.90
65536;DHT22;52145;49.342;9.116;2022-07-09T05:36:06;15.60;99.90
65536;DHT22;52145;49.342;9.116;2022-07-09T05:38:36;15.60;99.90
65536;DHT22;52145;49.342;9.116;2022-07-09T05:41:04;15.70;99.90
65536;DHT22;52145;49.342;9.116;2022-07-09T05:43:31;16.00;99.80
65536;DHT22;52145;49.342;9.116;2022-07-09T05:46:09;16.20;99.40
65536;DHT22;52145;49.342;9.116;2022-07-09T05:48:37;16.10;99.10
65536;DHT22;52145;49.342;9.116;2022-07-09T05:51:12;16.30;99.00
65536;DHT22;52145;49.342;9.116;2022-07-09T05:53:45;16.60;98.90
65536;DHT22;52145;49.342;9.116;2022-07-09T05:56:11;16.80;98.70
65536;DHT22;52145;49.342;9.116;2022-07-09T05:58:40;16.90;98.20
65536;DHT22;52145;49.342;9.116;2022-07-09T06:01:23;17.10;98.20
65536;DHT22;52145;49.342;9.116;2022-07-09T06:04:10;17.30;98.10
65536;DHT22;52145;49.342;9.116;2022-07-09T06:06:38;17.40;97.60
65536;DHT22;52145;49.342;9.116;2022-07-09T06:09:06;17.60;97.00
65536;DHT22;52145;49.342;9.116;2022-07-09T06:11:32;17.80;96.90
65536;DHT22;52145;49.342;9.116;2022-07-09T06:13:58;17.70;96.80
65536;DHT22;52145;49.342;9.116;2022-07-09T06:16:23;17.90;96.70
65536;DHT22;52145;49.342;9.116;2022-07-09T06:18:49;18.10;96.10
65536;DHT22;52145;49.342;9.116;2022-07-09T06:21:15;18.20;96.20
65536;DHT22;52145;49.342;9.116;2022-07-09T06:23:40;18.20;95.90
65536;DHT22;52145;49.342;9.116;2022-07-09T06:26:06;18.20;95.70
65536;DHT22;52145;49.342;9.116;2022-07-09T06:28:31;18.30;96.10
65536;DHT22;52145;49.342;9.116;2022-07-09T06:30:57;18.50;95.50
65536;DHT22;52145;49.342;9.116;2022-07-09T06:33:23;18.50;95.40
65536;DHT22;52145;49.342;9.116;2022-07-09T06:35:48;18.40;95.80
65536;DHT22;52145;49.342;9.116;2022-07-09T06:38:14;18.30;95.90
65536;DHT22;52145;49.342;9.116;2022-07-09T06:40:40;18.50;96.40
65536;DHT22;52145;49.342;9.116;2022-07-09T06:43:05;18.60;95.70
65536;DHT22;52145;49.342;9.116;2022-07-09T06:45:31;18.70;95.80
65536;DHT22;52145;49.342;9.116;2022-07-09T06:47:56;18.80;95.10
65536;DHT22;52145;49.342;9.116;2022-07-09T06:50:22;18.70;95.00
65536;DHT22;52145;49.342;9.116;2022-07-09T06:52:47;18.60;95.20
65536;DHT22;52145;49.342;9.116;2022-07-09T06:55:13;18.40;95.50
65536;DHT22;52145;49.342;9.116;2022-07-09T06:57:39;18.50;95.40
65536;DHT22;52145;49.342;9.116;2022-07-09T07:00:05;18.50;95.40
65536;DHT22;52145;49.342;9.116;2022-07-09T07:02:31;18.50;95.30
65536;DHT22;52145;49.342;9.116;2022-07-09T07:04:56;18.40;95.60
65536;DHT22;52145;49.342;9.116;2022-07-09T07:07:22;18.50;95.50
65536;DHT22;52145;49.342;9.116;2022-07-09T07:09:48;18.70;95.20
65536;DHT22;52145;49.342;9.116;2022-07-09T07:12:13;18.80;95.20
65536;DHT22;52145;49.342;9.116;2022-07-09T07:14:39;19.00;94.90
65536;DHT22;52145;49.342;9.116;2022-07-09T07:17:04;19.40;94.70
65536;DHT22;52145;49.342;9.116;2022-07-09T07:19:30;19.60;94.40
65536;DHT22;52145;49.342;9.116;2022-07-09T07:21:55;19.60;94.20
65536;DHT22;52145;49.342;9.116;2022-07-09T07:24:21;19.70;94.10
65536;DHT22;52145;49.342;9.116;2022-07-09T07:26:47;19.70;94.00
65536;DHT22;52145;49.342;9.116;2022-07-09T07:29:12;19.80;94.00
65536;DHT22;52145;49.342;9.116;2022-07-09T07:31:38;19.80;93.70
65536;DHT22;52145;49.342;9.116;2022-07-09T07:34:03;19.80;93.60
65536;DHT22;52145;49.342;9.116;2022-07-09T07:36:29;19.80;93.10
65536;DHT22;52145;49.342;9.116;2022-07-09T07:38:55;19.60;93.90
65536;DHT22;52145;49.342;9.116;2022-07-09T07:41:21;19.80;93.90
65536;DHT22;52145;49.342;9.116;2022-07-09T07:43:47;20.10;93.80
65536;DHT22;52145;49.342;9.116;2022-07-09T07:46:13;20.20;93.70
65536;DHT22;52145;49.342;9.116;2022-07-09T07:48:39;20.20;93.40
65536;DHT22;52145;49.342;9.116;2022-07-09T07:51:07;20.30;93.40
65536;DHT22;52145;49.342;9.116;2022-07-09T07:53:33;20.40;93.40
65536;DHT22;52145;49.342;9.116;2022-07-09T07:56:00;20.70;93.50
65536;DHT22;52145;49.342;9.116;2022-07-09T07:58:26;20.90;93.50
65536;DHT22;52145;49.342;9.116;2022-07-09T08:00:51;21.10;93.30
65536;DHT22;52145;49.342;9.116;2022-07-09T08:03:17;21.20;93.00
65536;DHT22;52145;49.342;9.116;2022-07-09T08:05:42;21.30;93.20
65536;DHT22;52145;49.342;9.116;2022-07-09T08:08:08;21.60;92.70
65536;DHT22;52145;49.342;9.116;2022-07-09T08:10:33;21.70;92.40
65536;DHT22;52145;49.342;9.116;2022-07-09T08:12:59;21.70;92.30
65536;DHT22;52145;49.342;9.116;2022-07-09T08:15:25;21.90;91.90
65536;DHT22;52145;49.342;9.116;2022-07-09T08:17:50;22.10;91.90
65536;DHT22;52145;49.342;9.116;2022-07-09T08:20:16;22.10;92.00
65536;DHT22;52145;49.342;9.116;2022-07-09T08:22:41;22.30;92.20
65536;DHT22;52145;49.342;9.116;2022-07-09T08:25:07;22.60;90.80
65536;DHT22;52145;49.342;9.116;2022-07-09T08:27:33;22.60;90.50
65536;DHT22;52145;49.342;9.116;2022-07-09T08:29:58;22.70;90.30
65536;DHT22;52145;49.342;9.116;2022-07-09T08:32:24;22.70;90.00
65536;DHT22;52145;49.342;9.116;2022-07-09T08:34:50;22.80;90.20
65536;DHT22;52145;49.342;9.116;2022-07-09T08:37:15;22.90;90.10
65536;DHT22;52145;49.342;9.116;2022-07-09T08:39:41;23.00;89.00
65536;DHT22;52145;49.342;9.116;2022-07-09T08:42:10;23.30;87.90
65536;DHT22;52145;49.342;9.116;2022-07-09T08:44:38;23.30;87.70
65536;DHT22;52145;49.342;9.116;2022-07-09T08:47:05;23.30;86.80
65536;DHT22;52145;49.342;9.116;2022-07-09T08:49:31;23.40;87.60
65536;DHT22;52145;49.342;9.116;2022-07-09T08:51:57;23.60;87.50
65536;DHT22;52145;49.342;9.116;2022-07-09T08:54:23;23.90;86.10
65536;DHT22;52145;49.342;9.116;2022-07-09T08:56:52;24.10;84.50
65536;DHT22;52145;49.342;9.116;2022-07-09T08:59:18;24.10;84.20
65536;DHT22;52145;49.342;9.116;2022-07-09T09:01:44;24.10;84.20
65536;DHT22;52145;49.342;9.116;2022-07-09T09:04:09;24.10;83.20
65536;DHT22;52145;49.342;9.116;2022-07-09T09:06:38;24.40;84.20
65536;DHT22;52145;49.342;9.116;2022-07-09T09:09:07;24.70;83.30
65536;DHT22;52145;49.342;9.116;2022-07-09T09:11:33;24.70;81.70
65536;DHT22;52145;49.342;9.116;2022-07-09T09:14:01;24.40;81.50
65536;DHT22;52145;49.342;9.116;2022-07-09T09:16:26;24.50;82.10
65536;DHT22;52145;49.342;9.116;2022-07-09T09:18:53;24.70;81.40
65536;DHT22;52145;49.342;9.116;2022-07-09T09:21:23;24.50;79.90
65536;DHT22;52145;49.342;9.116;2022-07-09T09:23:51;24.90;80.10
65536;DHT22;52145;49.342;9.116;2022-07-09T09:26:22;25.10;77.90
65536;DHT22;52145;49.342;9.116;2022-07-09T09:28:49;25.50;77.60
65536;DHT22;52145;49.342;9.116;2022-07-09T09:31:19;26.20;76.70
65536;DHT22;52145;49.342;9.116;2022-07-09T09:33:45;26.50;75.70
65536;DHT22;52145;49.342;9.116;2022-07-09T09:36:10;26.50;75.40
65536;DHT22;52145;49.342;9.116;2022-07-09T09:38:36;26.20;75.40
65536;DHT22;52145;49.342;9.116;2022-07-09T09:41:02;26.30;76.80
65536;DHT22;52145;49.342;9.116;2022-07-09T09:43:30;25.70;75.70
65536;DHT22;52145;49.342;9.116;2022-07-09T09:45:58;25.70;78.60
65536;DHT22;52145;49.342;9.116;2022-07-09T09:48:24;25.90;77.10
65536;DHT22;52145;49.342;9.116;2022-07-09T09:50:51;26.30;78.00
65536;DHT22;52145;49.342;9.116;2022-07-09T09:53:17;26.40;75.90
65536;DHT22;52145;49.342;9.116;2022-07-09T09:55:45;26.30;76.50
65536;DHT22;52145;49.342;9.116;2022-07-09T09:58:13;26.50;77.30
65536;DHT22;52145;49.342;9.116;2022-07-09T10:00:39;26.50;76.20
65536;DHT22;52145;49.342;9.116;2022-07-09T10:03:05;26.10;75.90
65536;DHT22;52145;49.342;9.116;2022-07-09T10:05:31;25.90;76.40
65536;DHT22;52145;49.342;9.116;2022-07-09T10:07:57;25.90;77.50
65536;DHT22;52145;49.342;9.116;2022-07-09T10:10:23;25.90;77.40
65536;DHT22;52145;49.342;9.116;2022-07-09T10:12:49;26.20;78.70
65536;DHT22;52145;49.342;9.116;2022-07-09T10:15:22;26.50;78.80
65536;DHT22;52145;49.342;9.116;2022-07-09T10:17:48;26.60;77.40
65536;DHT22;52145;49.342;9.116;2022-07-09T10:20:14;26.60;78.20
65536;DHT22;52145;49.342;9.116;2022-07-09T10:22:43;26.70;78.60
65536;DHT22;52145;49.342;9.116;2022-07-09T10:25:22;26.60;77.70
65536;DHT22;52145;49.342;9.116;2022-07-09T10:27:49;27.00;77.00
65536;DHT22;52145;49.342;9.116;2022-07-09T10:30:29;27.10;76.90
65536;DHT22;52145;49.342;9.116;2022-07-09T10:35:28;26.60;78.00
65536;DHT22;52145;49.342;9.116;2022-07-09T10:37:54;27.00;78.80
65536;DHT22;52145;49.342;9.116;2022-07-09T10:40:21;27.40;74.70
65536;DHT22;52145;49.342;9.116;2022-07-09T10:43:01;27.00;75.20
65536;DHT22;52145;49.342;9.116;2022-07-09T10:45:35;26.40;75.40
65536;DHT22;52145;49.342;9.116;2022-07-09T10:48:02;26.40;76.40
65536;DHT22;52145;49.342;9.116;2022-07-09T10:50:30;26.40;75.90
65536;DHT22;52145;49.342;9.116;2022-07-09T10:52:57;26.40;76.20
65536;DHT22;52145;49.342;9.116;2022-07-09T10:55:25;26.30;77.50
65536;DHT22;52145;49.342;9.116;2022-07-09T10:57:51;26.40;77.20
65536;DHT22;52145;49.342;9.116;2022-07-09T11:00:19;26.90;75.80
65536;DHT22;52145;49.342;9.116;2022-07-09T11:05:20;27.90;75.20
65536;DHT22;52145;49.342;9.116;2022-07-09T11:08:05;28.70;73.30
65536;DHT22;52145;49.342;9.116;2022-07-09T11:10:34;29.50;71.90
65536;DHT22;52145;49.342;9.116;2022-07-09T11:13:00;29.80;71.20
65536;DHT22;52145;49.342;9.116;2022-07-09T11:15:31;30.50;69.60
65536;DHT22;52145;49.342;9.116;2022-07-09T11:18:01;30.30;69.90
65536;DHT22;52145;49.342;9.116;2022-07-09T11:20:28;30.30;69.90
65536;DHT22;52145;49.342;9.116;2022-07-09T11:22:55;31.10;69.30
65536;DHT22;52145;49.342;9.116;2022-07-09T11:25:26;30.80;68.70
65536;DHT22;52145;49.342;9.116;2022-07-09T11:27:53;30.10;69.20
65536;DHT22;52145;49.342;9.116;2022-07-09T11:30:18;29.30;70.50
65536;DHT22;52145;49.342;9.116;2022-07-09T11:32:44;29.10;70.30
65536;DHT22;52145;49.342;9.116;2022-07-09T11:35:11;28.70;71.60
65536;DHT22;52145;49.342;9.116;2022-07-09T11:37:38;28.50;71.10
65536;DHT22;52145;49.342;9.116;2022-07-09T11:40:04;27.60;71.10
65536;DHT22;52145;49.342;9.116;2022-07-09T11:42:30;27.10;72.50
65536;DHT22;52145;49.342;9.116;2022-07-09T11:44:57;27.40;72.20
65536;DHT22;52145;49.342;9.116;2022-07-09T11:47:36;28.70;71.30
65536;DHT22;52145;49.342;9.116;2022-07-09T11:50:08;30.60;70.00
65536;DHT22;52145;49.342;9.116;2022-07-09T11:52:34;31.00;67.80
65536;DHT22;52145;49.342;9.116;2022-07-09T11:55:01;31.70;67.10
65536;DHT22;52145;49.342;9.116;2022-07-09T11:57:28;32.60;65.80
65536;DHT22;52145;49.342;9.116;2022-07-09T11:59:54;32.30;65.00
65536;DHT22;52145;49.342;9.116;2022-07-09T12:02:32;32.60;65.20
65536;DHT22;52145;49.342;9.116;2022-07-09T12:05:03;33.50;64.10
65536;DHT22;52145;49.342;9.116;2022-07-09T12:07:29;34.10;62.40
65536;DHT22;52145;49.342;9.116;2022-07-09T12:10:06;32.80;62.60
65536;DHT22;52145;49.342;9.116;2022-07-09T12:12:33;33.10;63.10
65536;DHT22;52145;49.342;9.116;2022-07-09T12:14:59;33.50;61.90
65536;DHT22;52145;49.342;9.116;2022-07-09T12:17:26;33.50;62.10
65536;DHT22;52145;49.342;9.116;2022-07-09T12:19:52;34.40;63.70
65536;DHT22;52145;49.342;9.116;2022-07-09T12:22:18;35.70;62.60
65536;DHT22;52145;49.342;9.116;2022-07-09T12:24:44;35.70;60.10
65536;DHT22;52145;49.342;9.116;2022-07-09T12:27:10;35.00;60.50
65536;DHT22;52145;49.342;9.116;2022-07-09T12:29:36;32.70;63.30
65536;DHT22;52145;49.342;9.116;2022-07-09T12:32:02;31.50;63.70
65536;DHT22;52145;49.342;9.116;2022-07-09T12:34:27;29.50;66.90
65536;DHT22;52145;49.342;9.116;2022-07-09T12:36:53;28.90;67.90
65536;DHT22;52145;49.342;9.116;2022-07-09T12:39:18;29.00;66.80
65536;DHT22;52145;49.342;9.116;2022-07-09T12:41:44;28.90;67.60
65536;DHT22;52145;49.342;9.116;2022-07-09T12:44:09;29.10;68.70
65536;DHT22;52145;49.342;9.116;2022-07-09T12:46:35;28.90;68.30
65536;DHT22;52145;49.342;9.116;2022-07-09T12:49:01;28.50;68.40
65536;DHT22;52145;49.342;9.116;2022-07-09T12:51:27;27.90;69.30
65536;DHT22;52145;49.342;9.116;2022-07-09T12:53:53;28.80;68.40
65536;DHT22;52145;49.342;9.116;2022-07-09T12:56:18;30.00;67.50
65536;DHT22;52145;49.342;9.116;2022-07-09T12:58:44;31.40;65.80
65536;DHT22;52145;49.342;9.116;2022-07-09T13:01:10;30.30;65.70
65536;DHT22;52145;49.342;9.116;2022-07-09T13:03:35;28.90;68.40
65536;DHT22;52145;49.342;9.116;2022-07-09T13:06:01;28.40;69.80
65536;DHT22;52145;49.342;9.116;2022-07-09T13:08:26;28.20;69.80
65536;DHT22;52145;49.342;9.116;2022-07-09T13:10:52;28.00;70.10
65536;DHT22;52145;49.342;9.116;2022-07-09T13:13:18;28.30;70.00
65536;DHT22;52145;49.342;9.116;2022-07-09T13:15:43;29.60;68.30
65536;DHT22;52145;49.342;9.116;2022-07-09T13:18:09;30.10;66.70
65536;DHT22;52145;49.342;9.116;2022-07-09T13:20:35;29.20;67.30
65536;DHT22;52145;49.342;9.116;2022-07-09T13:23:00;29.30;68.20
65536;DHT22;52145;49.342;9.116;2022-07-09T13:25:26;30.20;67.40
65536;DHT22;52145;49.342;9.116;2022-07-09T13:27:51;31.90;66.60
65536;DHT22;52145;49.342;9.116;2022-07-09T13:30:17;32.40;64.10
65536;DHT22;52145;49.342;9.116;2022-07-09T13:32:47;31.60;65.00
65536;DHT22;52145;49.342;9.116;2022-07-09T13:35:12;31.20;66.40
65536;DHT22;52145;49.342;9.116;2022-07-09T13:37:38;31.10;66.30
65536;DHT22;52145;49.342;9.116;2022-07-09T13:40:04;31.00;65.20
65536;DHT22;52145;49.342;9.116;2022-07-09T13:42:30;31.00;65.60
65536;DHT22;52145;49.342;9.116;2022-07-09T13:44:56;31.10;65.50
65536;DHT22;52145;49.342;9.116;2022-07-09T13:47:21;31.60;64.70
65536;DHT22;52145;49.342;9.116;2022-07-09T13:49:47;31.20;64.50
65536;DHT22;52145;49.342;9.116;2022-07-09T13:52:12;31.30;64.10
65536;DHT22;52145;49.342;9.116;2022-07-09T13:54:38;31.00;64.50
65536;DHT22;52145;49.342;9.116;2022-07-09T13:57:04;30.70;64.50
65536;DHT22;52145;49.342;9.116;2022-07-09T13:59:30;30.40;65.80
65536;DHT22;52145;49.342;9.116;2022-07-09T14:01:55;30.00;65.30
65536;DHT22;52145;49.342;9.116;2022-07-09T14:04:22;30.10;65.70
65536;DHT22;52145;49.342;9.116;2022-07-09T14:06:49;29.30;65.50
65536;DHT22;52145;49.342;9.116;2022-07-09T14:09:15;28.30;66.60
65536;DHT22;52145;49.342;9.116;2022-07-09T14:11:42;28.50;66.60
65536;DHT22;52145;49.342;9.116;2022-07-09T14:14:07;29.70;66.10
65536;DHT22;52145;49.342;9.116;2022-07-09T14:16:33;30.10;65.50
65536;DHT22;52145;49.342;9.116;2022-07-09T14:18:59;30.30;65.30
65536;DHT22;52145;49.342;9.116;2022-07-09T14:21:24;30.20;65.30
65536;DHT22;52145;49.342;9.116;2022-07-09T14:23:50;31.60;63.40
65536;DHT22;52145;49.342;9.116;2022-07-09T14:26:16;30.90;63.80
65536;DHT22;52145;49.342;9.116;2022-07-09T14:28:41;30.30;64.10
65536;DHT22;52145;49.342;9.116;2022-07-09T14:31:07;31.50;63.70
65536;DHT22;52145;49.342;9.116;2022-07-09T14:33:32;32.40;63.30
65536;DHT22;52145;49.342;9.116;2022-07-09T14:35:58;32.50;62.10
65536;DHT22;52145;49.342;9.116;2022-07-09T14:38:24;32.60;61.90
65536;DHT22;52145;49.342;9.116;2022-07-09T14:40:49;32.70;62.30
65536;DHT22;52145;49.342;9.116;2022-07-09T14:43:17;32.40;62.00
65536;DHT22;52145;49.342;9.116;2022-07-09T14:45:43;31.30;62.50
65536;DHT22;52145;49.342;9.116;2022-07-09T14:48:08;31.40;62.10
65536;DHT22;52145;49.342;9.116;2022-07-09T14:50:35;31.70;62.70
65536;DHT22;52145;49.342;9.116;2022-07-09T14:53:01;30.90;61.90
65536;DHT22;52145;49.342;9.116;2022-07-09T14:55:31;30.20;62.40
65536;DHT22;52145;49.342;9.116;2022-07-09T14:57:58;29.10;64.40
65536;DHT22;52145;49.342;9.116;2022-07-09T15:00:23;28.70;64.50
65536;DHT22;52145;49.342;9.116;2022-07-09T15:02:49;29.80;63.60
65536;DHT22;52145;49.342;9.116;2022-07-09T15:05:14;30.10;63.70
65536;DHT22;52145;49.342;9.116;2022-07-09T15:07:40;29.90;63.30
65536;DHT22;52145;49.342;9.116;2022-07-09T15:10:06;29.20;63.00
65536;DHT22;52145;49.342;9.116;2022-07-09T15:12:32;28.50;63.30
65536;DHT22;52145;49.342;9.116;2022-07-09T15:14:58;28.40;65.20
65536;DHT22;52145;49.342;9.116;2022-07-09T15:17:24;28.50;64.70
65536;DHT22;52145;49.342;9.116;2022-07-09T15:19:49;28.80;66.00
65536;DHT22;52145;49.342;9.116;2022-07-09T15:22:15;28.90;66.10
65536;DHT22;52145;49.342;9.116;2022-07-09T15:24:41;29.10;65.10
65536;DHT22;52145;49.342;9.116;2022-07-09T15:27:06;29.30;64.20
65536;DHT22;52145;49.342;9.116;2022-07-09T15:29:32;29.50;63.90
65536;DHT22;52145;49.342;9.116;2022-07-09T15:31:58;29.90;64.00